sensor_id;sensor_type;location;lat;lon;timestamp;temperature;humidity
51500;DHT22;39101;53.478;6.158;2023-07-30T00:01:13;16.30;99.90
51500;DHT22;39101;53.478;6.158;2023-07-30T00:03:39;16.30;99.90
51500;DHT22;39101;53.478;6.158;2023-07-30T00:06:04;16.30;99.90
51500;DHT22;39101;53.478;6.158;2023-07-30T00:08:30;16.20;99.90
51500;DHT22;39101;53.478;6.158;2023-07-30T00:10:59;16.20;99.90
51500;DHT22;39101;53.478;6.158;2023-07-30T00:13:25;16.30;99.90
51500;DHT22;39101;53.478;6.158;2023-07-30T00:15:51;16.20;99.90
51500;DHT22;39101;53.478;6.158;2023-07-30T00:18:17;16.20;99.90
51500;DHT22;39101;53.478;6.158;2023-07-30T00:20:43;16.20;99.90
51500;DHT22;39101;53.478;6.158;2023-07-30T00:23:09;16.20;99.90
51500;DHT22;39101;53.478;6.158;2023-07-30T00:25:35;16.20;99.90
51500;DHT22;39101;53.478;6.158;2023-07-30T00:28:00;16.20;99.90
51500;DHT22;39101;53.478;6.158;2023-07-30T00:30:26;16.10;99.90
51500;DHT22;39101;53.478;6.158;2023-07-30T00:32:52;16.10;99.90
51500;DHT22;39101;53.478;6.158;2023-07-30T00:35:17;16.10;99.90
51500;DHT22;39101;53.478;6.158;2023-07-30T00:37:43;16.10;99.90
51500;DHT22;39101;53.478;6.158;2023-07-30T00:40:09;16.00;99.90
51500;DHT22;39101;53.478;6.158;2023-07-30T00:42:35;16.00;99.90
51500;DHT22;39101;53.478;6.158;2023-07-30T00:45:01;16.10;99.90
51500;DHT22;39101;53.478;6.158;2023-07-30T00:47:26;16.00;99.90
51500;DHT22;39101;53.478;6.158;2023-07-30T00:49:53;16.00;99.90
51500;DHT22;39101;53.478;6.158;2023-07-30T00:52:21;16.00;99.90
51500;DHT22;39101;53.478;6.158;2023-07-30T00:54:49;16.00;99.90
51500;DHT22;39101;53.478;6.158;2023-07-30T00:57:18;16.00;99.90
51500;DHT22;39101;53.478;6.158;2023-07-30T00:59:44;15.90;99.90
51500;DHT22;39101;53.478;6.158;2023-07-30T01:02:10;15.90;99.90
51500;DHT22;39101;53.478;6.158;2023-07-30T01:04:37;15.90;99.90
51500;DHT22;39101;53.478;6.158;2023-07-30T01:07:05;15.90;99.90
51500;DHT22;39101;53.478;6.158;2023-07-30T01:09:31;16.00;99.90
51500;DHT22;39101;53.478;6.158;2023-07-30T01:11:58;15.90;99.90
51500;DHT22;39101;53.478;6.158;2023-07-30T01:14:24;15.90;99.90
51500;DHT22;39101;53.478;6.158;2023-07-30T01:16:52;15.90;99.90
51500;DHT22;39101;53.478;6.158;2023-07-30T01:19:18;15.90;99.90
51500;DHT22;39101;53.478;6.158;2023-07-30T01:21:44;15.90;99.90
51500;DHT22;39101;53.478;6.158;2023-07-30T01:24:09;15.90;99.90
51500;DHT22;39101;53.478;6.158;2023-07-30T01:26:43;15.90;99.90
51500;DHT22;39101;53.478;6.158;2023-07-30T01:29:14;15.90;99.90
51500;DHT22;39101;53.478;6.158;2023-07-30T01:31:41;15.90;99.90
51500;DHT22;39101;53.478;6.158;2023-07-30T01:34:09;16.00;99.90
51500;DHT22;39101;53.478;6.158;2023-07-30T01:36:37;15.90;99.90
51500;DHT22;39101;53.478;6.158;2023-07-30T01:39:05;16.00;99.90
51500;DHT22;39101;53.478;6.158;2023-07-30T01:41:31;16.00;99.90
51500;DHT22;39101;53.478;6.158;2023-07-30T01:43:57;16.00;99.90
51500;DHT22;39101;53.478;6.158;2023-07-30T01:46:22;16.00;99.90
51500;DHT22;39101;53.478;6.158;2023-07-30T01:48:48;16.00;99.90
51500;DHT22;39101;53.478;6.158;2023-07-30T01:51:14;16.00;99.90
51500;DHT22;39101;53.478;6.158;2023-07-30T01:53:39;16.00;99.90
51500;DHT22;39101;53.478;6.158;2023-07-30T01:56:05;16.10;99.90
51500;DHT22;39101;53.478;6.158;2023-07-30T01:58:30;16.10;99.90
51500;DHT22;39101;53.478;6.158;2023-07-30T02:00:56;16.10;99.90
51500;DHT22;39101;53.478;6.158;2023-07-30T02:03:22;16.10;99.90
51500;DHT22;39101;53.478;6.158;2023-07-30T02:05:47;16.20;99.90
51500;DHT22;39101;53.478;6.158;2023-07-30T02:08:13;16.10;99.90
51500;DHT22;39101;53.478;6.158;2023-07-30T02:10:41;16.20;99.90
51500;DHT22;39101;53.478;6.158;2023-07-30T02:13:07;16.10;99.90
51500;DHT22;39101;53.478;6.158;2023-07-30T02:15:33;16.20;99.90
51500;DHT22;39101;53.478;6.158;2023-07-30T02:17:58;16.20;99.90
51500;DHT22;39101;53.478;6.158;2023-07-30T02:20:24;16.20;99.90
51500;DHT22;39101;53.478;6.158;2023-07-30T02:22:50;16.30;99.90
51500;DHT22;39101;53.478;6.158;2023-07-30T02:25:15;16.30;99.90
51500;DHT22;39101;53.478;6.158;2023-07-30T02:27:41;16.20;99.90
51500;DHT22;39101;53.478;6.158;2023-07-30T02:30:07;16.30;99.90
51500;DHT22;39101;53.478;6.158;2023-07-30T02:32:33;16.30;99.90
51500;DHT22;39101;53.478;6.158;2023-07-30T02:34:58;16.30;99.90
51500;DHT22;39101;53.478;6.158;2023-07-30T02:37:24;16.30;99.90
51500;DHT22;39101;53.478;6.158;2023-07-30T02:39:49;16.30;99.90
51500;DHT22;39101;53.478;6.158;2023-07-30T02:42:15;16.30;99.90
51500;DHT22;39101;53.478;6.158;2023-07-30T02:44:41;16.40;99.90
51500;DHT22;39101;53.478;6.158;2023-07-30T02:47:06;16.40;99.90
51500;DHT22;39101;53.478;6.158;2023-07-30T02:49:32;16.40;99.90
51500;DHT22;39101;53.478;6.158;2023-07-30T02:51:57;16.30;99.90
51500;DHT22;39101;53.478;6.158;2023-07-30T02:54:23;16.40;99.90
51500;DHT22;39101;53.478;6.158;2023-07-30T02:56:49;16.40;99.90
51500;DHT22;39101;53.478;6.158;2023-07-30T02:59:14;16.40;99.90
51500;DHT22;39101;53.478;6.158;2023-07-30T03:01:40;16.40;99.90
51500;DHT22;39101;53.478;6.158;2023-07-30T03:04:05;16.40;99.90
51500;DHT22;39101;53.478;6.158;2023-07-30T03:06:31;16.40;99.90
51500;DHT22;39101;53.478;6.158;2023-07-30T03:08:57;16.30;99.90
51500;DHT22;39101;53.478;6.158;2023-07-30T03:11:23;16.40;99.90
51500;DHT22;39101;53.478;6.158;2023-07-30T03:13:48;16.40;99.90
51500;DHT22;39101;53.478;6.158;2023-07-30T03:16:14;16.40;99.90
51500;DHT22;39101;53.478;6.158;2023-07-30T03:18:40;16.40;99.90
51500;DHT22;39101;53.478;6.158;2023-07-30T03:21:05;16.30;99.90
51500;DHT22;39101;53.478;6.158;2023-07-30T03:23:31;16.40;99.90
51500;DHT22;39101;53.478;6.158;2023-07-30T03:25:58;16.40;99.90
51500;DHT22;39101;53.478;6.158;2023-07-30T03:28:25;16.40;99.90
51500;DHT22;39101;53.478;6.158;2023-07-30T03:30:51;16.30;99.90
51500;DHT22;39101;53.478;6.158;2023-07-30T03:33:17;16.40;99.90
51500;DHT22;39101;53.478;6.158;2023-07-30T03:35:42;16.40;99.90
51500;DHT22;39101;53.478;6.158;2023-07-30T03:38:08;16.40;99.90
51500;DHT22;39101;53.478;6.158;2023-07-30T03:40:33;16.30;99.90
51500;DHT22;39101;53.478;6.158;2023-07-30T03:42:59;16.40;99.90
51500;DHT22;39101;53.478;6.158;2023-07-30T03:45:25;16.40;99.90
51500;DHT22;39101;53.478;6.158;2023-07-30T03:47:50;16.40;99.90
51500;DHT22;39101;53.478;6.158;2023-07-30T03:50:16;16.40;99.90
51500;DHT22;39101;53.478;6.158;2023-07-30T03:52:42;16.40;99.90
51500;DHT22;39101;53.478;6.158;2023-07-30T03:55:07;16.40;99.90
51500;DHT22;39101;53.478;6.158;2023-07-30T03:57:33;16.40;99.90
51500;DHT22;39101;53.478;6.158;2023-07-30T03:59:59;16.40;99.90
51500;DHT22;39101;53.478;6.158;2023-07-30T04:02:25;16.40;99.90
51500;DHT22;39101;53.478;6.158;2023-07-30T04:04:51;16.40;99.90
51500;DHT22;39101;53.478;6.158;2023-07-30T04:07:16;16.40;99.90
51500;DHT22;39101;53.478;6.158;2023-07-30T04:09:42;16.40;99.90
51500;DHT22;39101;53.478;6.158;2023-07-30T04:12:08;16.40;99.90
51500;DHT22;39101;53.478;6.158;2023-07-30T04:14:33;16.40;99.90
51500;DHT22;39101;53.478;6.158;2023-07-30T04:16:59;16.40;99.90
51500;DHT22;39101;53.478;6.158;2023-07-30T04:19:25;16.40;99.90
51500;DHT22;39101;53.478;6.158;2023-07-30T04:21:50;16.40;99.90
51500;DHT22;39101;53.478;6.158;2023-07-30T04:24:16;16.40;99.90
51500;DHT22;39101;53.478;6.158;2023-07-30T04:26:42;16.40;99.90
51500;DHT22;39101;53.478;6.158;2023-07-30T04:29:07;16.40;99.90
51500;DHT22;39101;53.478;6.158;2023-07-30T04:31:33;16.40;99.90
51500;DHT22;39101;53.478;6.158;2023-07-30T04:33:59;16.50;99.90
51500;DHT22;39101;53.478;6.158;2023-07-30T04:36:24;16.40;99.90
51500;DHT22;39101;53.478;6.158;2023-07-30T04:38:50;16.50;99.90
51500;DHT22;39101;53.478;6.158;2023-07-30T04:41:16;16.50;99.90
51500;DHT22;39101;53.478;6.158;2023-07-30T04:43:44;16.50;99.90
51500;DHT22;39101;53.478;6.158;2023-07-30T04:46:09;16.50;99.90
51500;DHT22;39101;53.478;6.158;2023-07-30T04:48:36;16.50;99.90
51500;DHT22;39101;53.478;6.158;2023-07-30T04:51:02;16.50;99.90
51500;DHT22;39101;53.478;6.158;2023-07-30T04:53:28;16.60;99.90
51500;DHT22;39101;53.478;6.158;2023-07-30T04:55:57;16.60;99.90
51500;DHT22;39101;53.478;6.158;2023-07-30T04:58:23;16.60;99.90
51500;DHT22;39101;53.478;6.158;2023-07-30T05:00:49;16.60;99.90
51500;DHT22;39101;53.478;6.158;2023-07-30T05:03:15;16.60;99.90
51500;DHT22;39101;53.478;6.158;2023-07-30T05:05:41;16.60;99.90
51500;DHT22;39101;53.478;6.158;2023-07-30T05:08:07;16.60;99.90
51500;DHT22;39101;53.478;6.158;2023-07-30T05:10:33;16.60;99.90
51500;DHT22;39101;53.478;6.158;2023-07-30T05:12:59;16.60;99.90
51500;DHT22;39101;53.478;6.158;2023-07-30T05:15:25;16.60;99.90
51500;DHT22;39101;53.478;6.158;2023-07-30T05:17:50;16.60;99.90
51500;DHT22;39101;53.478;6.158;2023-07-30T05:20:17;16.60;99.90
51500;DHT22;39101;53.478;6.158;2023-07-30T05:22:45;16.50;99.90
51500;DHT22;39101;53.478;6.158;2023-07-30T05:25:11;16.60;99.90
51500;DHT22;39101;53.478;6.158;2023-07-30T05:27:36;16.60;99.90
51500;DHT22;39101;53.478;6.158;2023-07-30T05:30:02;16.60;99.90
51500;DHT22;39101;53.478;6.158;2023-07-30T05:32:28;16.60;99.90
51500;DHT22;39101;53.478;6.158;2023-07-30T05:34:54;16.60;99.90
51500;DHT22;39101;53.478;6.158;2023-07-30T05:37:19;16.60;99.90
51500;DHT22;39101;53.478;6.158;2023-07-30T05:39:45;16.60;99.90
51500;DHT22;39101;53.478;6.158;2023-07-30T05:42:11;16.60;99.90
51500;DHT22;39101;53.478;6.158;2023-07-30T05:44:36;16.60;99.90
51500;DHT22;39101;53.478;6.158;2023-07-30T05:47:02;16.60;99.90
51500;DHT22;39101;53.478;6.158;2023-07-30T05:49:28;16.60;99.90
51500;DHT22;39101;53.478;6.158;2023-07-30T05:51:53;16.60;99.90
51500;DHT22;39101;53.478;6.158;2023-07-30T05:54:19;16.60;99.90
51500;DHT22;39101;53.478;6.158;2023-07-30T05:56:45;16.70;99.90
51500;DHT22;39101;53.478;6.158;2023-07-30T05:59:10;16.70;99.90
51500;DHT22;39101;53.478;6.158;2023-07-30T06:01:36;16.70;99.90
51500;DHT22;39101;53.478;6.158;2023-07-30T06:04:02;16.70;99.90
51500;DHT22;39101;53.478;6.158;2023-07-30T06:06:28;16.70;99.90
51500;DHT22;39101;53.478;6.158;2023-07-30T06:08:54;16.70;99.90
51500;DHT22;39101;53.478;6.158;2023-07-30T06:11:21;16.70;99.90
51500;DHT22;39101;53.478;6.158;2023-07-30T06:13:46;16.70;99.90
51500;DHT22;39101;53.478;6.158;2023-07-30T06:16:13;16.80;99.90
51500;DHT22;39101;53.478;6.158;2023-07-30T06:18:38;16.80;99.90
51500;DHT22;39101;53.478;6.158;2023-07-30T06:21:04;16.80;99.90
51500;DHT22;39101;53.478;6.158;2023-07-30T06:23:30;16.90;99.90
51500;DHT22;39101;53.478;6.158;2023-07-30T06:25:55;16.90;99.90
51500;DHT22;39101;53.478;6.158;2023-07-30T06:28:21;16.90;99.90
51500;DHT22;39101;53.478;6.158;2023-07-30T06:30:46;17.00;99.90
51500;DHT22;39101;53.478;6.158;2023-07-30T06:33:13;17.00;99.90
51500;DHT22;39101;53.478;6.158;2023-07-30T06:35:38;17.00;99.90
51500;DHT22;39101;53.478;6.158;2023-07-30T06:38:07;17.00;99.90
51500;DHT22;39101;53.478;6.158;2023-07-30T06:40:33;17.00;99.90
51500;DHT22;39101;53.478;6.158;2023-07-30T06:42:59;17.00;99.90
51500;DHT22;39101;53.478;6.158;2023-07-30T06:45:24;16.90;99.90
51500;DHT22;39101;53.478;6.158;2023-07-30T06:47:50;17.00;99.90
51500;DHT22;39101;53.478;6.158;2023-07-30T06:50:16;17.00;99.90
51500;DHT22;39101;53.478;6.158;2023-07-30T06:52:41;16.90;99.90
51500;DHT22;39101;53.478;6.158;2023-07-30T06:55:07;17.00;99.90
51500;DHT22;39101;53.478;6.158;2023-07-30T06:57:33;17.00;99.90
51500;DHT22;39101;53.478;6.158;2023-07-30T06:59:59;17.10;99.90
51500;DHT22;39101;53.478;6.158;2023-07-30T07:02:25;17.10;99.90
51500;DHT22;39101;53.478;6.158;2023-07-30T07:04:51;17.10;99.90
51500;DHT22;39101;53.478;6.158;2023-07-30T07:07:17;17.20;99.90
51500;DHT22;39101;53.478;6.158;2023-07-30T07:09:43;17.20;99.90
51500;DHT22;39101;53.478;6.158;2023-07-30T07:12:08;17.10;99.90
51500;DHT22;39101;53.478;6.158;2023-07-30T07:14:34;17.10;99.90
51500;DHT22;39101;53.478;6.158;2023-07-30T07:17:00;17.10;99.90
51500;DHT22;39101;53.478;6.158;2023-07-30T07:19:25;17.20;99.90
51500;DHT22;39101;53.478;6.158;2023-07-30T07:21:51;17.30;99.90
51500;DHT22;39101;53.478;6.158;2023-07-30T07:24:17;17.30;99.90
51500;DHT22;39101;53.478;6.158;2023-07-30T07:26:42;17.30;99.90
51500;DHT22;39101;53.478;6.158;2023-07-30T07:29:09;17.40;99.90
51500;DHT22;39101;53.478;6.158;2023-07-30T07:31:35;17.60;99.90
51500;DHT22;39101;53.478;6.158;2023-07-30T07:34:01;17.50;99.90
51500;DHT22;39101;53.478;6.158;2023-07-30T07:36:26;17.50;99.90
51500;DHT22;39101;53.478;6.158;2023-07-30T07:38:52;17.40;99.90
51500;DHT22;39101;53.478;6.158;2023-07-30T07:41:18;17.40;99.90
51500;DHT22;39101;53.478;6.158;2023-07-30T07:43:46;17.50;99.90
51500;DHT22;39101;53.478;6.158;2023-07-30T07:46:11;17.50;99.90
51500;DHT22;39101;53.478;6.158;2023-07-30T07:48:43;17.50;99.90
51500;DHT22;39101;53.478;6.158;2023-07-30T07:51:10;17.60;99.90
51500;DHT22;39101;53.478;6.158;2023-07-30T07:53:36;17.60;99.90
51500;DHT22;39101;53.478;6.158;2023-07-30T07:56:03;17.60;99.90
51500;DHT22;39101;53.478;6.158;2023-07-30T07:58:29;17.50;99.90
51500;DHT22;39101;53.478;6.158;2023-07-30T08:00:55;17.60;99.90
51500;DHT22;39101;53.478;6.158;2023-07-30T08:03:21;17.50;99.90
51500;DHT22;39101;53.478;6.158;2023-07-30T08:05:48;17.50;99.90
51500;DHT22;39101;53.478;6.158;2023-07-30T08:08:13;17.40;99.90
51500;DHT22;39101;53.478;6.158;2023-07-30T08:10:40;17.40;99.90
51500;DHT22;39101;53.478;6.158;2023-07-30T08:13:12;17.40;99.90
51500;DHT22;39101;53.478;6.158;2023-07-30T08:15:38;17.40;99.90
51500;DHT22;39101;53.478;6.158;2023-07-30T08:18:04;17.40;99.90
51500;DHT22;39101;53.478;6.158;2023-07-30T08:20:30;17.30;99.90
51500;DHT22;39101;53.478;6.158;2023-07-30T08:22:55;17.40;99.90
51500;DHT22;39101;53.478;6.158;2023-07-30T08:25:21;17.40;99.90
51500;DHT22;39101;53.478;6.158;2023-07-30T08:27:47;17.40;99.90
51500;DHT22;39101;53.478;6.158;2023-07-30T08:30:13;17.40;99.90
51500;DHT22;39101;53.478;6.158;2023-07-30T08:32:38;17.40;99.90
51500;DHT22;39101;53.478;6.158;2023-07-30T08:35:04;17.40;99.90
51500;DHT22;39101;53.478;6.158;2023-07-30T08:37:30;17.40;99.90
51500;DHT22;39101;53.478;6.158;2023-07-30T08:39:56;17.40;99.90
51500;DHT22;39101;53.478;6.158;2023-07-30T08:42:22;17.50;99.90
51500;DHT22;39101;53.478;6.158;2023-07-30T08:44:48;17.40;99.90
51500;DHT22;39101;53.478;6.158;2023-07-30T08:47:14;17.40;99.90
51500;DHT22;39101;53.478;6.158;2023-07-30T08:49:39;17.50;99.90
51500;DHT22;39101;53.478;6.158;2023-07-30T08:52:08;17.60;99.90
51500;DHT22;39101;53.478;6.158;2023-07-30T08:54:34;17.70;99.90
51500;DHT22;39101;53.478;6.158;2023-07-30T08:57:02;17.80;99.90
51500;DHT22;39101;53.478;6.158;2023-07-30T08:59:37;17.80;99.90
51500;DHT22;39101;53.478;6.158;2023-07-30T09:02:04;17.80;99.90
51500;DHT22;39101;53.478;6.158;2023-07-30T09:04:34;17.70;99.90
51500;DHT22;39101;53.478;6.158;2023-07-30T09:07:02;17.60;99.90
51500;DHT22;39101;53.478;6.158;2023-07-30T09:09:27;17.60;99.90
51500;DHT22;39101;53.478;6.158;2023-07-30T09:11:53;17.60;99.90
51500;DHT22;39101;53.478;6.158;2023-07-30T09:14:20;17.70;99.90
51500;DHT22;39101;53.478;6.158;2023-07-30T09:16:46;17.70;99.90
51500;DHT22;39101;53.478;6.158;2023-07-30T09:19:16;17.70;99.90
51500;DHT22;39101;53.478;6.158;2023-07-30T09:21:43;17.80;99.90
51500;DHT22;39101;53.478;6.158;2023-07-30T09:24:08;17.80;99.90
51500;DHT22;39101;53.478;6.158;2023-07-30T09:26:45;17.90;99.90
51500;DHT22;39101;53.478;6.158;2023-07-30T09:29:11;18.00;99.90
51500;DHT22;39101;53.478;6.158;2023-07-30T09:31:47;18.20;99.90
51500;DHT22;39101;53.478;6.158;2023-07-30T09:34:18;18.30;99.90
51500;DHT22;39101;53.478;6.158;2023-07-30T09:36:49;18.40;99.90
51500;DHT22;39101;53.478;6.158;2023-07-30T09:39:23;18.40;99.90
51500;DHT22;39101;53.478;6.158;2023-07-30T09:41:53;18.30;99.90
51500;DHT22;39101;53.478;6.158;2023-07-30T09:44:24;18.40;99.90
51500;DHT22;39101;53.478;6.158;2023-07-30T09:46:50;18.40;99.90
51500;DHT22;39101;53.478;6.158;2023-07-30T09:49:17;18.40;99.90
51500;DHT22;39101;53.478;6.158;2023-07-30T09:51:44;18.50;99.90
51500;DHT22;39101;53.478;6.158;2023-07-30T09:54:11;18.50;99.90
51500;DHT22;39101;53.478;6.158;2023-07-30T09:56:38;18.50;99.90
51500;DHT22;39101;53.478;6.158;2023-07-30T09:59:09;18.50;99.90
51500;DHT22;39101;53.478;6.158;2023-07-30T10:01:44;18.50;99.90
51500;DHT22;39101;53.478;6.158;2023-07-30T10:04:11;18.50;99.90
51500;DHT22;39101;53.478;6.158;2023-07-30T10:06:58;18.50;99.90
51500;DHT22;39101;53.478;6.158;2023-07-30T10:09:30;18.40;99.90
51500;DHT22;39101;53.478;6.158;2023-07-30T10:12:00;18.40;99.90
51500;DHT22;39101;53.478;6.158;2023-07-30T10:14:27;18.50;99.90
51500;DHT22;39101;53.478;6.158;2023-07-30T10:16:55;18.60;99.90
51500;DHT22;39101;53.478;6.158;2023-07-30T10:19:28;18.70;99.90
51500;DHT22;39101;53.478;6.158;2023-07-30T10:22:22;18.80;99.90
51500;DHT22;39101;53.478;6.158;2023-07-30T10:25:02;18.80;99.90
51500;DHT22;39101;53.478;6.158;2023-07-30T10:27:37;18.90;99.90
51500;DHT22;39101;53.478;6.158;2023-07-30T10:30:14;18.90;99.90
51500;DHT22;39101;53.478;6.158;2023-07-30T10:38:21;19.00;99.90
51500;DHT22;39101;53.478;6.158;2023-07-30T10:41:10;19.00;99.90
51500;DHT22;39101;53.478;6.158;2023-07-30T10:43:47;18.90;99.90
51500;DHT22;39101;53.478;6.158;2023-07-30T10:46:14;18.90;99.90
51500;DHT22;39101;53.478;6.158;2023-07-30T10:48:42;18.90;99.90
51500;DHT22;39101;53.478;6.158;2023-07-30T10:51:16;18.90;99.90
51500;DHT22;39101;53.478;6.158;2023-07-30T10:53:43;18.80;99.90
51500;DHT22;39101;53.478;6.158;2023-07-30T10:56:10;18.80;99.90
51500;DHT22;39101;53.478;6.158;2023-07-30T10:58:36;18.80;99.90
51500;DHT22;39101;53.478;6.158;2023-07-30T11:01:06;18.90;99.90
51500;DHT22;39101;53.478;6.158;2023-07-30T11:03:33;18.80;99.90
51500;DHT22;39101;53.478;6.158;2023-07-30T11:06:00;18.90;99.90
51500;DHT22;39101;53.478;6.158;2023-07-30T11:08:36;18.90;99.90
51500;DHT22;39101;53.478;6.158;2023-07-30T11:11:02;18.80;99.90
51500;DHT22;39101;53.478;6.158;2023-07-30T11:13:28;18.80;99.90
51500;DHT22;39101;53.478;6.158;2023-07-30T11:15:54;18.90;99.90
51500;DHT22;39101;53.478;6.158;2023-07-30T11:18:20;18.90;99.90
51500;DHT22;39101;53.478;6.158;2023-07-30T11:20:45;18.90;99.90
51500;DHT22;39101;53.478;6.158;2023-07-30T11:23:21;18.90;99.90
51500;DHT22;39101;53.478;6.158;2023-07-30T11:25:51;18.90;99.90
51500;DHT22;39101;53.478;6.158;2023-07-30T11:28:30;18.90;99.90
51500;DHT22;39101;53.478;6.158;2023-07-30T11:31:01;18.90;99.90
51500;DHT22;39101;53.478;6.158;2023-07-30T11:33:28;19.00;99.90
51500;DHT22;39101;53.478;6.158;2023-07-30T11:35:55;19.00;99.90
51500;DHT22;39101;53.478;6.158;2023-07-30T11:38:26;19.00;99.90
51500;DHT22;39101;53.478;6.158;2023-07-30T11:40:55;19.00;99.90
51500;DHT22;39101;53.478;6.158;2023-07-30T11:43:22;19.00;99.90
51500;DHT22;39101;53.478;6.158;2023-07-30T11:45:48;19.10;99.90
51500;DHT22;39101;53.478;6.158;2023-07-30T11:48:13;19.20;99.90
51500;DHT22;39101;53.478;6.158;2023-07-30T11:50:58;19.20;99.90
51500;DHT22;39101;53.478;6.158;2023-07-30T11:53:44;19.20;99.90
51500;DHT22;39101;53.478;6.158;2023-07-30T11:56:21;19.10;99.90
51500;DHT22;39101;53.478;6.158;2023-07-30T11:58:48;19.10;99.90
51500;DHT22;39101;53.478;6.158;2023-07-30T12:01:18;19.00;99.90
51500;DHT22;39101;53.478;6.158;2023-07-30T12:03:44;19.00;99.90
51500;DHT22;39101;53.478;6.158;2023-07-30T12:06:10;19.00;99.90
51500;DHT22;39101;53.478;6.158;2023-07-30T12:08:36;19.00;99.90
51500;DHT22;39101;53.478;6.158;2023-07-30T12:11:04;18.90;99.90
51500;DHT22;39101;53.478;6.158;2023-07-30T12:13:30;18.90;99.90
51500;DHT22;39101;53.478;6.158;2023-07-30T12:15:57;18.90;99.90
51500;DHT22;39101;53.478;6.158;2023-07-30T12:18:24;19.00;99.90
51500;DHT22;39101;53.478;6.158;2023-07-30T12:20:51;19.00;99.90
51500;DHT22;39101;53.478;6.158;2023-07-30T12:23:17;19.00;99.90
51500;DHT22;39101;53.478;6.158;2023-07-30T12:25:43;19.00;99.90
51500;DHT22;39101;53.478;6.158;2023-07-30T12:28:09;19.00;99.90
51500;DHT22;39101;53.478;6.158;2023-07-30T12:30:35;19.00;99.90
51500;DHT22;39101;53.478;6.158;2023-07-30T12:33:02;19.00;99.90
51500;DHT22;39101;53.478;6.158;2023-07-30T12:35:29;19.00;99.90
51500;DHT22;39101;53.478;6.158;2023-07-30T12:37:54;19.00;99.90
51500;DHT22;39101;53.478;6.158;2023-07-30T12:40:20;19.00;99.90
51500;DHT22;39101;53.478;6.158;2023-07-30T12:42:46;19.10;99.90
51500;DHT22;39101;53.478;6.158;2023-07-30T12:45:11;19.00;99.90
51500;DHT22;39101;53.478;6.158;2023-07-30T12:47:37;19.00;99.90
51500;DHT22;39101;53.478;6.158;2023-07-30T12:50:03;19.10;99.90
51500;DHT22;39101;53.478;6.158;2023-07-30T12:52:30;19.10;99.90
51500;DHT22;39101;53.478;6.158;2023-07-30T12:54:56;19.20;99.90
51500;DHT22;39101;53.478;6.158;2023-07-30T12:57:22;19.10;99.90
51500;DHT22;39101;53.478;6.158;2023-07-30T12:59:47;19.10;99.90
51500;DHT22;39101;53.478;6.158;2023-07-30T13:02:13;19.00;99.90
51500;DHT22;39101;53.478;6.158;2023-07-30T13:04:38;19.10;99.90
51500;DHT22;39101;53.478;6.158;2023-07-30T13:07:04;19.20;99.90
51500;DHT22;39101;53.478;6.158;2023-07-30T13:09:30;19.20;99.90
51500;DHT22;39101;53.478;6.158;2023-07-30T13:11:56;19.20;99.90
51500;DHT22;39101;53.478;6.158;2023-07-30T13:14:22;19.20;99.90
51500;DHT22;39101;53.478;6.158;2023-07-30T13:16:48;19.20;99.90
51500;DHT22;39101;53.478;6.158;2023-07-30T13:19:13;19.10;99.90
51500;DHT22;39101;53.478;6.158;2023-07-30T13:21:39;19.00;99.90
51500;DHT22;39101;53.478;6.158;2023-07-30T13:24:05;18.90;99.90
51500;DHT22;39101;53.478;6.158;2023-07-30T13:26:30;18.70;99.90
51500;DHT22;39101;53.478;6.158;2023-07-30T13:28:56;18.60;99.90
51500;DHT22;39101;53.478;6.158;2023-07-30T13:31:22;18.60;99.90
51500;DHT22;39101;53.478;6.158;2023-07-30T13:33:47;18.60;99.90
51500;DHT22;39101;53.478;6.158;2023-07-30T13:36:13;18.50;99.90
51500;DHT22;39101;53.478;6.158;2023-07-30T13:38:39;18.40;99.90
51500;DHT22;39101;53.478;6.158;2023-07-30T13:41:05;18.30;99.90
51500;DHT22;39101;53.478;6.158;2023-07-30T13:43:32;18.10;99.90
51500;DHT22;39101;53.478;6.158;2023-07-30T13:45:58;17.80;99.90
51500;DHT22;39101;53.478;6.158;2023-07-30T13:48:27;17.50;99.90
51500;DHT22;39101;53.478;6.158;2023-07-30T13:50:53;17.20;99.90
51500;DHT22;39101;53.478;6.158;2023-07-30T13:53:19;17.00;99.90
51500;DHT22;39101;53.478;6.158;2023-07-30T13:55:45;16.70;99.90
51500;DHT22;39101;53.478;6.158;2023-07-30T13:58:11;16.70;99.90
51500;DHT22;39101;53.478;6.158;2023-07-30T14:00:39;16.70;99.90
51500;DHT22;39101;53.478;6.158;2023-07-30T14:03:05;16.70;99.90
51500;DHT22;39101;53.478;6.158;2023-07-30T14:05:31;16.80;99.90
51500;DHT22;39101;53.478;6.158;2023-07-30T14:07:56;16.90;99.90
51500;DHT22;39101;53.478;6.158;2023-07-30T14:10:23;16.90;99.90
51500;DHT22;39101;53.478;6.158;2023-07-30T14:12:49;17.00;99.90
51500;DHT22;39101;53.478;6.158;2023-07-30T14:15:15;17.10;99.90
51500;DHT22;39101;53.478;6.158;2023-07-30T14:17:41;17.20;99.90
51500;DHT22;39101;53.478;6.158;2023-07-30T14:20:07;17.30;99.90
51500;DHT22;39101;53.478;6.158;2023-07-30T14:22:34;17.40;99.90
51500;DHT22;39101;53.478;6.158;2023-07-30T14:25:00;17.60;99.90
51500;DHT22;39101;53.478;6.158;2023-07-30T14:27:25;17.80;99.90
51500;DHT22;39101;53.478;6.158;2023-07-30T14:29:51;17.90;99.90
51500;DHT22;39101;53.478;6.158;2023-07-30T14:32:19;18.10;99.90
51500;DHT22;39101;53.478;6.158;2023-07-30T14:34:45;18.10;99.90
51500;DHT22;39101;53.478;6.158;2023-07-30T14:37:10;18.20;99.90
51500;DHT22;39101;53.478;6.158;2023-07-30T14:39:36;18.20;99.90
51500;DHT22;39101;53.478;6.158;2023-07-30T14:42:02;18.20;99.90
51500;DHT22;39101;53.478;6.158;2023-07-30T14:44:28;18.10;99.90
51500;DHT22;39101;53.478;6.158;2023-07-30T14:46:53;18.10;99.90
51500;DHT22;39101;53.478;6.158;2023-07-30T14:49:19;18.00;99.90
51500;DHT22;39101;53.478;6.158;2023-07-30T14:51:45;18.10;99.90
51500;DHT22;39101;53.478;6.158;2023-07-30T14:54:12;18.10;99.90
51500;DHT22;39101;53.478;6.158;2023-07-30T14:56:38;18.10;99.90
51500;DHT22;39101;53.478;6.158;2023-07-30T14:59:04;18.20;99.90
51500;DHT22;39101;53.478;6.158;2023-07-30T15:01:30;18.20;99.90
51500;DHT22;39101;53.478;6.158;2023-07-30T15:03:56;18.20;99.90
51500;DHT22;39101;53.478;6.158;2023-07-30T15:06:25;18.30;99.90
51500;DHT22;39101;53.478;6.158;2023-07-30T15:08:54;18.40;99.90
51500;DHT22;39101;53.478;6.158;2023-07-30T15:11:20;18.40;99.90
51500;DHT22;39101;53.478;6.158;2023-07-30T15:13:45;18.50;99.90
51500;DHT22;39101;53.478;6.158;2023-07-30T15:16:11;18.50;99.90
51500;DHT22;39101;53.478;6.158;2023-07-30T15:18:36;18.40;99.90
51500;DHT22;39101;53.478;6.158;2023-07-30T15:21:02;18.40;99.90
51500;DHT22;39101;53.478;6.158;2023-07-30T15:23:28;18.50;99.90
51500;DHT22;39101;53.478;6.158;2023-07-30T15:25:53;18.40;99.90
51500;DHT22;39101;53.478;6.158;2023-07-30T15:28:20;18.40;99.90
51500;DHT22;39101;53.478;6.158;2023-07-30T15:30:46;18.40;99.90
51500;DHT22;39101;53.478;6.158;2023-07-30T15:33:11;18.40;99.90